createdAt,value
2018-05-25T00:00:51.217Z,20.6
2018-05-25T00:01:50.919Z,20.67
2018-05-25T00:02:51.198Z,20.62
2018-05-25T00:03:50.692Z,20.62
2018-05-25T00:04:51.274Z,20.66
2018-05-25T00:05:51.282Z,20.59
2018-05-25T00:06:51.036Z,20.65
2018-05-25T00:07:51.310Z,20.58
2018-05-25T00:08:51.362Z,20.66
2018-05-25T00:09:51.371Z,20.6
2018-05-25T00:10:51.128Z,20.52
2018-05-25T00:11:51.433Z,20.58
2018-05-25T00:12:51.454Z,20.48
2018-05-25T00:13:51.454Z,20.5
2018-05-25T00:14:51.222Z,20.52
2018-05-25T00:15:51.515Z,20.52
2018-05-25T00:16:51.251Z,20.58
2018-05-25T00:17:51.293Z,20.47
2018-05-25T00:18:51.567Z,20.52
2018-05-25T00:19:51.316Z,20.51
2018-05-25T00:20:51.131Z,20.5
2018-05-25T00:21:51.639Z,20.5
2018-05-25T00:22:57.797Z,20.58
2018-05-25T00:23:51.698Z,20.48
2018-05-25T00:24:51.515Z,20.5
2018-05-25T00:25:51.738Z,20.43
2018-05-25T00:26:51.476Z,20.5
2018-05-25T00:27:51.791Z,20.44
2018-05-25T00:28:51.806Z,20.48
2018-05-25T00:29:51.269Z,20.48
2018-05-25T00:30:51.858Z,20.5
2018-05-25T00:31:51.873Z,20.43
2018-05-25T00:32:51.887Z,20.51
2018-05-25T00:33:51.893Z,20.47
2018-05-25T00:34:51.664Z,20.41
2018-05-25T00:35:51.425Z,20.48
2018-05-25T00:36:51.984Z,20.44
2018-05-25T00:37:51.720Z,20.39
2018-05-25T00:38:52.026Z,20.37
2018-05-25T00:39:52.034Z,20.47
2018-05-25T00:40:51.811Z,20.44
2018-05-25T00:41:52.083Z,20.44
2018-05-25T00:42:52.128Z,20.41
2018-05-25T00:43:52.140Z,20.4
2018-05-25T00:44:52.165Z,20.36
2018-05-25T00:45:51.933Z,20.36
2018-05-25T00:46:51.923Z,20.41
2018-05-25T00:47:52.242Z,20.31
2018-05-25T00:48:52.258Z,20.41
2018-05-25T00:49:52.283Z,20.29
2018-05-25T00:50:52.057Z,20.39
2018-05-25T00:51:52.037Z,20.37
2018-05-25T00:52:52.347Z,20.31
2018-05-25T00:53:52.358Z,20.37
2018-05-25T00:54:52.113Z,20.28
2018-05-25T00:55:52.140Z,20.29
2018-05-25T00:56:52.154Z,20.37
2018-05-25T00:57:52.460Z,20.31
2018-05-25T00:58:52.490Z,20.29
2018-05-25T00:59:51.945Z,20.34
2018-05-25T01:00:52.258Z,20.37
2018-05-25T01:01:52.527Z,20.25
2018-05-25T01:02:52.296Z,20.28
2018-05-25T01:03:52.601Z,20.25
2018-05-25T01:04:52.591Z,20.28
2018-05-25T01:05:52.634Z,20.32
2018-05-25T01:06:52.375Z,20.26
2018-05-25T01:07:52.668Z,20.28
2018-05-25T01:08:52.712Z,20.29
2018-05-25T01:09:52.447Z,20.25
2018-05-25T01:10:52.756Z,20.25
2018-05-25T01:11:52.483Z,20.26
2018-05-25T01:12:52.788Z,20.29
2018-05-25T01:13:52.830Z,20.16
2018-05-25T01:14:52.567Z,20.16
2018-05-25T01:15:52.580Z,20.16
2018-05-25T01:16:52.871Z,20.16
2018-05-25T01:17:52.627Z,20.18
2018-05-25T01:18:52.653Z,20.16
2018-05-25T01:19:52.944Z,20.13
2018-05-25T01:20:52.977Z,20.18
2018-05-25T01:21:52.992Z,20.1
2018-05-25T01:22:53.013Z,20.22
2018-05-25T01:23:53.020Z,20.11
2018-05-25T01:24:53.056Z,20.14
2018-05-25T01:25:53.094Z,20.18
2018-05-25T01:26:52.842Z,20.13
2018-05-25T01:27:53.118Z,20.06
2018-05-25T01:28:53.147Z,20.11
2018-05-25T01:29:53.187Z,20.1
2018-05-25T01:30:53.201Z,20.14
2018-05-25T01:31:53.204Z,20.18
2018-05-25T01:32:53.250Z,20.02
2018-05-25T01:33:52.973Z,20.04
2018-05-25T01:34:53.002Z,20.04
2018-05-25T01:35:53.322Z,20.04
2018-05-25T01:36:53.335Z,20
2018-05-25T01:37:53.342Z,20.04
2018-05-25T01:38:52.816Z,20.06
2018-05-25T01:39:53.392Z,20.1
2018-05-25T01:40:53.427Z,20.09
2018-05-25T01:41:53.162Z,20
2018-05-25T01:42:53.191Z,20
2018-05-25T01:43:53.467Z,19.94
2018-05-25T01:44:53.234Z,20
2018-05-25T01:45:53.531Z,19.94
2018-05-25T01:46:53.537Z,19.96
2018-05-25T01:47:53.028Z,19.94
2018-05-25T01:48:53.047Z,19.96
2018-05-25T01:49:53.337Z,19.96
2018-05-25T01:50:53.649Z,19.92
2018-05-25T01:51:53.655Z,19.88
2018-05-25T01:52:53.679Z,19.88
2018-05-25T01:53:53.725Z,19.85
2018-05-25T01:54:53.746Z,19.89
2018-05-25T01:55:53.732Z,19.88
2018-05-25T01:56:53.500Z,19.88
2018-05-25T01:57:53.530Z,19.79
2018-05-25T01:58:53.533Z,19.84
2018-05-25T01:59:53.578Z,19.82
2018-05-25T02:00:53.845Z,19.84
2018-05-25T02:01:53.876Z,19.79
2018-05-25T02:02:53.889Z,19.77
2018-05-25T02:03:53.666Z,19.76
2018-05-25T02:04:53.951Z,19.79
2018-05-25T02:05:53.420Z,19.81
2018-05-25T02:06:53.719Z,19.81
2018-05-25T02:07:54.032Z,19.81
2018-05-25T02:08:54.052Z,19.74
2018-05-25T02:09:54.048Z,19.74
2018-05-25T02:10:54.090Z,19.71
2018-05-25T02:11:54.156Z,19.73
2018-05-25T02:12:53.854Z,19.7
2018-05-25T02:13:53.862Z,19.71
2018-05-25T02:14:54.157Z,19.63
2018-05-25T02:15:54.189Z,19.7
2018-05-25T02:16:54.225Z,19.62
2018-05-25T02:17:53.975Z,19.64
2018-05-25T02:18:54.278Z,19.63
2018-05-25T02:19:54.293Z,19.64
2018-05-25T02:20:54.301Z,19.62
2018-05-25T02:21:54.060Z,19.67
2018-05-25T02:22:53.811Z,19.56
2018-05-25T02:23:54.093Z,19.63
2018-05-25T02:24:54.388Z,19.63
2018-05-25T02:25:54.439Z,19.66
2018-05-25T02:26:54.419Z,19.58
2018-05-25T02:27:54.457Z,19.54
2018-05-25T02:28:54.218Z,19.64
2018-05-25T02:29:54.227Z,19.62
2018-05-25T02:30:54.237Z,19.62
2018-05-25T02:31:54.558Z,19.51
2018-05-25T02:32:54.577Z,19.51
2018-05-25T02:33:54.333Z,19.51
2018-05-25T02:34:54.348Z,19.49
2018-05-25T02:35:54.360Z,19.47
2018-05-25T02:36:54.395Z,19.49
2018-05-25T02:37:54.667Z,19.52
2018-05-25T02:38:54.720Z,19.51
2018-05-25T02:39:54.730Z,19.54
2018-05-25T02:40:54.768Z,19.54
2018-05-25T02:41:54.490Z,19.44
2018-05-25T02:42:54.521Z,19.48
2018-05-25T02:43:54.784Z,19.44
2018-05-25T02:44:54.827Z,19.39
2018-05-25T02:45:54.850Z,19.4
2018-05-25T02:46:54.598Z,19.41
2018-05-25T02:47:54.912Z,19.4
2018-05-25T02:48:54.633Z,19.34
2018-05-25T02:49:54.401Z,19.39
2018-05-25T02:50:54.953Z,19.41
2018-05-25T02:51:54.991Z,19.41
2018-05-25T02:52:54.715Z,19.4
2018-05-25T02:53:55.033Z,19.47
2018-05-25T02:54:55.027Z,19.4
2018-05-25T02:55:54.798Z,19.29
2018-05-25T02:56:55.080Z,19.45
2018-05-25T02:57:54.851Z,19.36
2018-05-25T02:58:55.127Z,19.27
2018-05-25T02:59:55.172Z,19.3
2018-05-25T03:00:55.165Z,19.4
2018-05-25T03:01:54.650Z,19.39
2018-05-25T03:02:55.226Z,19.34
2018-05-25T03:03:55.248Z,19.26
2018-05-25T03:04:55.273Z,19.33
2018-05-25T03:05:55.292Z,19.33
2018-05-25T03:06:55.314Z,19.29
2018-05-25T03:07:55.364Z,19.36
2018-05-25T03:08:55.343Z,19.34
2018-05-25T03:09:55.112Z,19.27
2018-05-25T03:10:55.111Z,19.26
2018-05-25T03:11:55.412Z,19.24
2018-05-25T03:12:55.421Z,19.29
2018-05-25T03:13:55.451Z,19.22
2018-05-25T03:14:55.519Z,19.24
2018-05-25T03:15:55.478Z,19.27
2018-05-25T03:16:55.619Z,19.22
2018-05-25T03:17:55.332Z,19.27
2018-05-25T03:18:55.559Z,19.24
2018-05-25T03:19:55.338Z,19.26
2018-05-25T03:20:55.605Z,19.19
2018-05-25T03:21:55.616Z,19.26
2018-05-25T03:22:55.656Z,19.31
2018-05-25T03:23:55.389Z,19.24
2018-05-25T03:24:55.689Z,19.21
2018-05-25T03:25:55.719Z,19.16
2018-05-25T03:26:55.760Z,19.27
2018-05-25T03:27:55.763Z,19.26
2018-05-25T03:28:55.766Z,19.16
2018-05-25T03:29:55.808Z,19.19
2018-05-25T03:30:55.827Z,19.16
2018-05-25T03:31:55.590Z,19.24
2018-05-25T03:32:55.872Z,19.15
2018-05-25T03:33:55.902Z,19.21
2018-05-25T03:34:55.915Z,19.22
2018-05-25T03:35:55.947Z,19.09
2018-05-25T03:36:55.966Z,19.11
2018-05-25T03:37:55.990Z,19.11
2018-05-25T03:38:55.759Z,19.12
2018-05-25T03:39:55.772Z,19.11
2018-05-25T03:40:56.061Z,19.18
2018-05-25T03:41:56.061Z,19.11
2018-05-25T03:42:56.074Z,19.11
2018-05-25T03:43:56.120Z,19.14
2018-05-25T03:44:56.133Z,19.07
2018-05-25T03:45:56.137Z,19.16
2018-05-25T03:46:55.890Z,19.08
2018-05-25T03:47:56.172Z,19.14
2018-05-25T03:48:56.188Z,19.04
2018-05-25T03:49:56.245Z,19.08
2018-05-25T03:50:56.262Z,19.08
2018-05-25T03:51:56.022Z,19.09
2018-05-25T03:52:56.034Z,19.04
2018-05-25T03:53:56.321Z,19.08
2018-05-25T03:54:56.362Z,19.04
2018-05-25T03:55:56.088Z,19.04
2018-05-25T03:56:56.381Z,19.09
2018-05-25T03:57:56.458Z,19.07
2018-05-25T03:58:56.169Z,19.04
2018-05-25T03:59:56.470Z,19.11
2018-05-25T04:00:56.471Z,19.12
2018-05-25T04:01:56.493Z,19.04
2018-05-25T04:02:56.534Z,19.07
2018-05-25T04:03:56.522Z,19.07
2018-05-25T04:04:56.542Z,19.08
2018-05-25T04:05:56.310Z,19
2018-05-25T04:06:56.609Z,19.12
2018-05-25T04:07:56.368Z,19.09
2018-05-25T04:08:56.666Z,19.11
2018-05-25T04:09:56.656Z,19.12
2018-05-25T04:10:56.673Z,19.15
2018-05-25T04:11:56.724Z,19.07
2018-05-25T04:12:56.459Z,19.09
2018-05-25T04:13:56.773Z,18.99
2018-05-25T04:14:56.776Z,19.09
2018-05-25T04:15:56.791Z,19.11
2018-05-25T04:16:56.546Z,19.08
2018-05-25T04:17:56.858Z,19.07
2018-05-25T04:18:56.843Z,19.14
2018-05-25T04:19:56.877Z,19.07
2018-05-25T04:20:56.641Z,19.16
2018-05-25T04:21:56.939Z,19.07
2018-05-25T04:22:56.948Z,19.08
2018-05-25T04:23:56.876Z,19.04
2018-05-25T04:24:57.008Z,19.11
2018-05-25T04:25:56.739Z,19.12
2018-05-25T04:26:56.767Z,19.16
2018-05-25T04:27:57.172Z,19.19
2018-05-25T04:28:57.065Z,19.16
2018-05-25T04:29:57.113Z,19.19
2018-05-25T04:30:57.112Z,19.21
2018-05-25T04:31:56.882Z,19.12
2018-05-25T04:32:57.156Z,19.12
2018-05-25T04:33:57.239Z,19.24
2018-05-25T04:34:56.922Z,19.16
2018-05-25T04:35:57.229Z,19.19
2018-05-25T04:36:56.976Z,19.16
2018-05-25T04:37:56.983Z,19.22
2018-05-25T04:38:57.058Z,19.19
2018-05-25T04:39:57.301Z,19.3
2018-05-25T04:40:57.068Z,19.19
2018-05-25T04:41:57.357Z,19.3
2018-05-25T04:42:57.377Z,19.3
2018-05-25T04:43:57.405Z,19.24
2018-05-25T04:44:57.429Z,19.3
2018-05-25T04:45:57.431Z,19.26
2018-05-25T04:46:57.459Z,19.37
2018-05-25T04:47:57.209Z,19.29
2018-05-25T04:48:57.510Z,19.33
2018-05-25T04:49:57.263Z,19.3
2018-05-25T04:50:57.542Z,19.34
2018-05-25T04:51:57.304Z,19.39
2018-05-25T04:52:57.576Z,19.39
2018-05-25T04:53:57.627Z,19.26
2018-05-25T04:54:57.361Z,19.3
2018-05-25T04:55:57.391Z,19.37
2018-05-25T04:56:57.424Z,19.33
2018-05-25T04:57:57.410Z,19.4
2018-05-25T04:58:57.531Z,19.4
2018-05-25T04:59:57.774Z,19.4
2018-05-25T05:00:57.779Z,19.33
2018-05-25T05:01:57.786Z,19.34
2018-05-25T05:02:57.794Z,19.41
2018-05-25T05:03:57.835Z,19.4
2018-05-25T05:04:57.965Z,19.36
2018-05-25T05:05:57.858Z,19.37
2018-05-25T05:06:57.897Z,19.44
2018-05-25T05:07:57.899Z,19.33
2018-05-25T05:08:57.981Z,19.36
2018-05-25T05:09:57.668Z,19.4
2018-05-25T05:10:57.982Z,19.37
2018-05-25T05:11:57.445Z,19.48
2018-05-25T05:12:58.010Z,19.51
2018-05-25T05:13:57.760Z,19.51
2018-05-25T05:14:57.520Z,19.56
2018-05-25T05:15:58.067Z,19.51
2018-05-25T05:16:58.096Z,19.62
2018-05-25T05:17:58.126Z,19.48
2018-05-25T05:18:57.928Z,19.59
2018-05-25T05:19:57.934Z,19.52
2018-05-25T05:20:58.605Z,19.56
2018-05-25T05:21:58.223Z,19.62
2018-05-25T05:22:57.697Z,19.55
2018-05-25T05:23:57.982Z,19.55
2018-05-25T05:24:58.011Z,19.67
2018-05-25T05:25:58.305Z,19.67
2018-05-25T05:26:58.038Z,19.69
2018-05-25T05:27:58.348Z,19.71
2018-05-25T05:28:58.419Z,19.71
2018-05-25T05:29:58.391Z,19.79
2018-05-25T05:30:58.433Z,19.69
2018-05-25T05:31:58.455Z,19.71
2018-05-25T05:32:58.446Z,19.7
2018-05-25T05:33:58.529Z,19.85
2018-05-25T05:34:58.494Z,19.84
2018-05-25T05:35:58.528Z,19.91
2018-05-25T05:36:58.271Z,19.79
2018-05-25T05:37:58.292Z,19.88
2018-05-25T05:38:58.306Z,19.85
2018-05-25T05:39:58.606Z,19.99
2018-05-25T05:40:58.745Z,20
2018-05-25T05:41:58.657Z,19.94
2018-05-25T05:42:58.651Z,19.96
2018-05-25T05:43:58.399Z,19.86
2018-05-25T05:44:58.740Z,19.91
2018-05-25T05:45:58.473Z,19.92
2018-05-25T05:46:58.476Z,19.99
2018-05-25T05:47:58.504Z,20.02
2018-05-25T05:48:58.784Z,20.03
2018-05-25T05:49:58.819Z,20.07
2018-05-25T05:50:59.039Z,20.02
2018-05-25T05:51:58.882Z,20.04
2018-05-25T05:52:58.895Z,20.14
2018-05-25T05:53:58.641Z,20.09
2018-05-25T05:54:58.944Z,20.14
2018-05-25T05:55:58.414Z,20.18
2018-05-25T05:56:58.987Z,20.14
2018-05-25T05:57:58.996Z,20.21
2018-05-25T05:58:58.747Z,20.16
2018-05-25T05:59:58.758Z,20.29
2018-05-25T06:00:58.791Z,20.29
2018-05-25T06:01:59.086Z,20.22
2018-05-25T06:02:59.093Z,20.21
2018-05-25T06:03:58.876Z,20.29
2018-05-25T06:04:58.888Z,20.39
2018-05-25T06:05:59.194Z,20.37
2018-05-25T06:06:59.192Z,20.36
2018-05-25T06:07:59.213Z,20.41
2018-05-25T06:08:59.242Z,20.34
2018-05-25T06:09:58.994Z,20.48
2018-05-25T06:10:59.291Z,20.41
2018-05-25T06:11:59.288Z,20.41
2018-05-25T06:12:59.321Z,20.48
2018-05-25T06:13:59.345Z,20.43
2018-05-25T06:14:59.357Z,20.58
2018-05-25T06:15:59.965Z,20.51
2018-05-25T06:16:59.281Z,20.6
2018-05-25T06:17:59.012Z,20.62
2018-05-25T06:18:59.149Z,20.65
2018-05-25T06:19:59.223Z,20.7
2018-05-25T06:20:59.220Z,20.7
2018-05-25T06:21:59.542Z,20.77
2018-05-25T06:22:59.279Z,20.82
2018-05-25T06:23:59.546Z,20.8
2018-05-25T06:24:59.656Z,20.85
2018-05-25T06:25:59.612Z,20.92
2018-05-25T06:26:59.629Z,20.92
2018-05-25T06:27:59.711Z,20.96
2018-05-25T06:28:59.686Z,20.92
2018-05-25T06:29:59.718Z,20.99
2018-05-25T06:30:59.718Z,21.05
2018-05-25T06:31:59.770Z,21.11
2018-05-25T06:32:59.818Z,21.18
2018-05-25T06:33:59.529Z,21.18
2018-05-25T06:34:59.535Z,21.25
2018-05-25T06:35:59.844Z,21.29
2018-05-25T06:36:59.603Z,21.29
2018-05-25T06:37:59.896Z,21.35
2018-05-25T06:38:59.639Z,21.25
2018-05-25T06:39:59.639Z,21.3
2018-05-25T06:40:59.965Z,21.29
2018-05-25T06:41:59.948Z,21.33
2018-05-25T06:42:59.969Z,21.42
2018-05-25T06:43:59.749Z,21.33
2018-05-25T06:45:00.038Z,21.42
2018-05-25T06:45:59.783Z,21.39
2018-05-25T06:47:00.093Z,21.42
2018-05-25T06:47:59.570Z,21.39
2018-05-25T06:49:00.135Z,21.35
2018-05-25T06:49:59.924Z,21.4
2018-05-25T06:50:59.901Z,21.4
2018-05-25T06:51:59.913Z,21.35
2018-05-25T06:52:59.935Z,21.48
2018-05-25T06:53:59.967Z,21.48
2018-05-25T06:55:00.257Z,21.39
2018-05-25T06:56:00.272Z,21.51
2018-05-25T06:57:00.067Z,21.51
2018-05-25T06:58:00.185Z,21.46
2018-05-25T06:59:00.077Z,21.5
2018-05-25T07:00:00.107Z,21.6
2018-05-25T07:01:00.390Z,21.52
2018-05-25T07:02:00.403Z,21.66
2018-05-25T07:03:00.156Z,21.61
2018-05-25T07:04:00.539Z,21.64
2018-05-25T07:05:00.216Z,21.7
2018-05-25T07:06:00.510Z,21.69
2018-05-25T07:07:00.518Z,21.8
2018-05-25T07:08:00.561Z,21.76
2018-05-25T07:09:00.308Z,21.77
2018-05-25T07:10:00.306Z,21.85
2018-05-25T07:11:00.339Z,21.91
2018-05-25T07:12:00.372Z,21.89
2018-05-25T07:13:00.647Z,21.98
2018-05-25T07:14:00.420Z,22.04
2018-05-25T07:15:00.751Z,22
2018-05-25T07:16:00.474Z,21.99
2018-05-25T07:17:00.883Z,22.17
2018-05-25T07:18:00.771Z,22.11
2018-05-25T07:19:00.537Z,22.13
2018-05-25T07:20:00.833Z,22.28
2018-05-25T07:21:00.854Z,22.26
2018-05-25T07:22:00.612Z,22.28
2018-05-25T07:23:00.908Z,22.33
2018-05-25T07:24:00.929Z,22.41
2018-05-25T07:25:00.678Z,22.48
2018-05-25T07:26:00.936Z,22.57
2018-05-25T07:27:00.702Z,22.55
2018-05-25T07:28:01.005Z,22.51
2018-05-25T07:29:00.477Z,22.66
2018-05-25T07:30:01.043Z,22.55
2018-05-25T07:31:01.064Z,22.69
2018-05-25T07:32:00.818Z,22.72
2018-05-25T07:33:00.858Z,22.75
2018-05-25T07:34:00.888Z,22.75
2018-05-25T07:35:01.164Z,22.85
2018-05-25T07:36:00.904Z,22.85
2018-05-25T07:37:01.213Z,23
2018-05-25T07:38:01.251Z,23
2018-05-25T07:39:01.253Z,23.08
2018-05-25T07:40:01.023Z,23.15
2018-05-25T07:41:01.301Z,23.2
2018-05-25T07:42:01.040Z,23.28
2018-05-25T07:43:00.813Z,23.25
2018-05-25T07:44:01.383Z,23.32
2018-05-25T07:45:01.109Z,23.36
2018-05-25T07:46:01.166Z,23.41
2018-05-25T07:47:01.440Z,23.59
2018-05-25T07:48:01.497Z,23.54
2018-05-25T07:49:01.229Z,23.63
2018-05-25T07:50:01.546Z,23.69
2018-05-25T07:51:01.521Z,23.69
2018-05-25T07:52:01.564Z,23.74
2018-05-25T07:53:01.597Z,23.78
2018-05-25T07:54:01.624Z,23.71
2018-05-25T07:55:01.670Z,23.87
2018-05-25T07:56:01.646Z,23.86
2018-05-25T07:57:01.681Z,23.91
2018-05-25T07:58:01.414Z,23.98
2018-05-25T07:59:01.715Z,24.03
2018-05-25T08:00:01.807Z,24.06
2018-05-25T08:01:01.764Z,24.13
2018-05-25T08:02:01.782Z,24.21
2018-05-25T08:03:01.271Z,24.2
2018-05-25T08:04:01.576Z,24.23
2018-05-25T08:05:01.581Z,24.29
2018-05-25T08:06:01.883Z,24.39
2018-05-25T08:07:01.923Z,24.4
2018-05-25T08:08:01.923Z,24.47
2018-05-25T08:09:01.966Z,24.43
2018-05-25T08:10:01.732Z,24.53
2018-05-25T08:11:01.990Z,24.55
2018-05-25T08:12:02.182Z,24.63
2018-05-25T08:13:02.060Z,24.63
2018-05-25T08:14:01.809Z,24.73
2018-05-25T08:15:02.104Z,24.8
2018-05-25T08:16:01.881Z,24.89
2018-05-25T08:17:02.139Z,24.98
2018-05-25T08:18:01.899Z,24.98
2018-05-25T08:19:01.925Z,25.01
2018-05-25T08:20:02.219Z,25.1
2018-05-25T08:22:47.522Z,25.32
2018-05-25T08:23:47.774Z,25.44
2018-05-25T08:24:47.812Z,25.43
2018-05-25T08:25:47.847Z,25.59
2018-05-25T08:26:47.865Z,25.7
2018-05-25T08:27:47.600Z,25.72
2018-05-25T08:28:47.917Z,25.85
2018-05-25T08:29:47.927Z,25.93
2018-05-25T08:30:47.964Z,25.98
2018-05-25T08:31:48.001Z,26.06
2018-05-25T08:32:47.995Z,26.03
2018-05-25T08:33:47.502Z,26.25
2018-05-25T08:34:48.057Z,26.25
2018-05-25T08:35:47.811Z,26.33
2018-05-25T08:36:48.106Z,26.41
2018-05-25T08:37:47.849Z,26.45
2018-05-25T08:38:48.131Z,26.55
2018-05-25T08:39:48.157Z,26.6
2018-05-25T08:40:48.222Z,26.7
2018-05-25T08:41:47.954Z,26.75
2018-05-25T08:42:47.983Z,26.84
2018-05-25T08:43:48.286Z,26.8
2018-05-25T08:44:48.301Z,26.96
2018-05-25T08:45:48.335Z,26.93
2018-05-25T08:46:48.080Z,27.05
2018-05-25T08:47:48.397Z,27.05
2018-05-25T08:48:48.417Z,27.15
2018-05-25T08:49:48.447Z,27.21
2018-05-25T08:50:48.477Z,27.26
2018-05-25T08:51:48.474Z,27.29
2018-05-25T08:52:48.219Z,27.4
2018-05-25T08:53:47.990Z,27.51
2018-05-25T08:54:48.271Z,27.45
2018-05-25T08:55:48.037Z,27.58
2018-05-25T08:56:48.339Z,27.7
2018-05-25T08:57:48.639Z,27.78
2018-05-25T08:58:48.673Z,27.92
2018-05-25T08:59:48.675Z,28.01
2018-05-25T09:00:48.709Z,28.04
2018-05-25T09:01:48.743Z,28.1
2018-05-25T09:02:48.479Z,28.1
2018-05-25T09:03:48.518Z,28.14
2018-05-25T09:04:48.523Z,28.23
2018-05-25T09:05:48.839Z,28.26
2018-05-25T09:06:49.005Z,28.37
2018-05-25T09:07:48.897Z,28.47
2018-05-25T09:08:48.898Z,28.52
2018-05-25T09:09:48.946Z,28.63
2018-05-25T09:10:48.691Z,28.67
2018-05-25T09:11:48.703Z,28.75
2018-05-25T09:12:49.028Z,28.86
2018-05-25T09:13:49.043Z,28.89
2018-05-25T09:14:48.788Z,28.96
2018-05-25T09:15:48.810Z,29.04
2018-05-25T09:16:48.842Z,29.12
2018-05-25T09:17:49.148Z,29.12
2018-05-25T09:18:49.160Z,29.32
2018-05-25T09:19:49.194Z,29.35
2018-05-25T09:20:49.221Z,29.44
2018-05-25T09:21:49.589Z,29.39
2018-05-25T09:22:49.267Z,29.56
2018-05-25T09:23:49.316Z,29.54
2018-05-25T09:24:49.341Z,29.68
2018-05-25T09:25:49.412Z,29.69
2018-05-25T09:26:49.088Z,29.76
2018-05-25T09:27:49.137Z,29.79
2018-05-25T09:28:49.166Z,30
2018-05-25T09:29:49.467Z,30.03
2018-05-25T09:30:49.556Z,30.12
2018-05-25T09:31:49.509Z,30.24
2018-05-25T09:32:49.525Z,30.19
2018-05-25T09:33:49.552Z,30.25
2018-05-25T09:34:49.616Z,30.39
2018-05-25T09:35:49.615Z,30.32
2018-05-25T09:36:49.653Z,30.47
2018-05-25T09:37:49.699Z,30.54
2018-05-25T09:38:49.703Z,30.55
2018-05-25T09:39:49.710Z,30.68
2018-05-25T09:40:49.754Z,30.7
2018-05-25T09:41:49.787Z,30.9
2018-05-25T09:42:49.823Z,30.84
2018-05-25T09:43:49.832Z,31.03
2018-05-25T09:44:49.863Z,31.03
2018-05-25T09:45:49.620Z,31.12
2018-05-25T09:46:49.931Z,31.22
2018-05-25T09:47:49.927Z,31.28
2018-05-25T09:48:49.788Z,31.25
2018-05-25T09:49:50.008Z,31.33
2018-05-25T09:50:50.028Z,31.36
2018-05-25T09:51:50.050Z,31.51
2018-05-25T09:52:50.085Z,31.36
2018-05-25T09:53:50.110Z,31.42
2018-05-25T09:54:50.152Z,31.52
2018-05-25T09:55:50.193Z,31.51
2018-05-25T09:56:49.947Z,31.54
2018-05-25T09:57:49.686Z,31.66
2018-05-25T09:58:49.988Z,31.73
2018-05-25T09:59:50.295Z,31.8
2018-05-25T10:00:50.286Z,31.92
2018-05-25T10:01:50.324Z,31.93
2018-05-25T10:02:50.090Z,31.97
2018-05-25T10:03:50.122Z,32.07
2018-05-25T10:04:50.151Z,32.14
2018-05-25T10:05:50.447Z,32.16
2018-05-25T10:06:50.469Z,32.16
2018-05-25T10:07:50.535Z,32.29
2018-05-25T10:08:50.539Z,32.29
2018-05-25T10:09:50.580Z,32.37
2018-05-25T10:10:50.593Z,32.51
2018-05-25T10:11:50.614Z,32.46
2018-05-25T10:12:50.381Z,32.48
2018-05-25T10:13:50.400Z,32.51
2018-05-25T10:14:50.440Z,32.68
2018-05-25T10:15:50.208Z,32.68
2018-05-25T10:16:50.540Z,32.63
2018-05-25T10:17:50.592Z,32.71
2018-05-25T10:18:50.800Z,32.74
2018-05-25T10:19:50.301Z,32.86
2018-05-25T10:20:50.858Z,32.92
2018-05-25T10:21:50.626Z,32.97
2018-05-25T10:22:50.665Z,32.9
2018-05-25T10:23:50.967Z,33.11
2018-05-25T10:24:50.977Z,33.14
2018-05-25T10:25:51.025Z,33.09
2018-05-25T10:26:51.099Z,33.19
2018-05-25T10:27:50.793Z,33.22
2018-05-25T10:28:51.263Z,33.31
2018-05-25T10:29:51.157Z,33.39
2018-05-25T10:30:50.898Z,33.4
2018-05-25T10:31:50.986Z,33.5
2018-05-25T10:32:51.209Z,33.57
2018-05-25T10:33:50.985Z,33.65
2018-05-25T10:34:50.992Z,33.71
2018-05-25T10:35:50.769Z,33.74
2018-05-25T10:36:51.082Z,33.8
2018-05-25T10:37:51.372Z,33.83
2018-05-25T10:38:51.421Z,33.9
2018-05-25T10:39:51.436Z,33.96
2018-05-25T10:40:51.475Z,33.98
2018-05-25T10:41:51.223Z,34.02
2018-05-25T10:42:50.989Z,34.17
2018-05-25T10:43:51.544Z,34.17
2018-05-25T10:44:51.309Z,34.2
2018-05-25T10:45:51.339Z,34.3
2018-05-25T10:46:51.432Z,34.38
2018-05-25T10:47:51.672Z,34.5
2018-05-25T10:48:51.158Z,34.61
2018-05-25T10:49:51.747Z,34.62
2018-05-25T10:50:51.229Z,34.67
2018-05-25T10:51:51.809Z,34.83
2018-05-25T10:52:51.813Z,34.66
2018-05-25T10:53:51.592Z,34.75
2018-05-25T10:54:51.866Z,34.74
2018-05-25T10:55:51.667Z,34.78
2018-05-25T10:56:51.937Z,34.92
2018-05-25T10:57:51.708Z,34.78
2018-05-25T10:58:51.482Z,34.81
2018-05-25T10:59:52.041Z,34.85
2018-05-25T11:00:52.065Z,34.85
2018-05-25T11:01:51.824Z,34.89
2018-05-25T11:02:52.135Z,34.95
2018-05-25T11:03:52.252Z,35.02
2018-05-25T11:04:52.180Z,34.97
2018-05-25T11:05:52.223Z,35
2018-05-25T11:06:52.314Z,34.96
2018-05-25T11:07:51.995Z,35.04
2018-05-25T11:08:52.309Z,34.99
2018-05-25T11:09:52.081Z,35.05
2018-05-25T11:10:52.434Z,35
2018-05-25T11:11:52.435Z,35.04
2018-05-25T11:12:52.177Z,35.12
2018-05-25T11:13:52.193Z,35.1
2018-05-25T11:14:52.510Z,35.14
2018-05-25T11:15:52.529Z,35.14
2018-05-25T11:16:52.549Z,35.23
2018-05-25T11:17:52.305Z,35.17
2018-05-25T11:18:52.645Z,35.26
2018-05-25T11:19:52.675Z,35.26
2018-05-25T11:20:52.721Z,35.31
2018-05-25T11:21:52.728Z,35.42
2018-05-25T11:22:52.762Z,35.46
2018-05-25T11:23:52.504Z,35.49
2018-05-25T11:24:52.805Z,35.6
2018-05-25T11:25:52.832Z,35.64
2018-05-25T11:26:52.945Z,35.64
2018-05-25T11:27:52.903Z,35.7
2018-05-25T11:28:52.676Z,35.67
2018-05-25T11:29:52.704Z,35.73
2018-05-25T11:30:52.754Z,35.78
2018-05-25T11:31:53.036Z,35.8
2018-05-25T11:32:52.785Z,35.82
2018-05-25T11:33:53.100Z,35.89
2018-05-25T11:34:53.127Z,35.97
2018-05-25T11:35:53.151Z,35.88
2018-05-25T11:36:53.206Z,35.97
2018-05-25T11:37:53.229Z,36.01
2018-05-25T11:38:52.992Z,36.08
2018-05-25T11:39:53.293Z,36.2
2018-05-25T11:40:53.344Z,36.24
2018-05-25T11:41:53.358Z,36.24
2018-05-25T11:42:53.137Z,36.28
2018-05-25T11:43:53.417Z,36.24
2018-05-25T11:44:53.457Z,36.35
2018-05-25T11:45:53.495Z,36.37
2018-05-25T11:46:53.529Z,36.36
2018-05-25T11:47:53.280Z,36.37
2018-05-25T11:48:53.582Z,36.51
2018-05-25T11:49:53.633Z,36.58
2018-05-25T11:50:53.634Z,36.58
2018-05-25T11:51:53.661Z,36.62
2018-05-25T11:52:53.447Z,36.59
2018-05-25T11:53:53.501Z,36.61
2018-05-25T11:54:53.783Z,36.67
2018-05-25T11:55:53.812Z,36.8
2018-05-25T11:56:53.867Z,36.79
2018-05-25T11:57:53.605Z,36.88
2018-05-25T11:58:53.902Z,36.92
2018-05-25T11:59:53.683Z,36.95
2018-05-25T12:00:53.718Z,36.96
2018-05-25T12:01:54.149Z,36.92
2018-05-25T12:02:54.038Z,36.98
2018-05-25T12:03:54.073Z,36.86
2018-05-25T12:04:53.860Z,36.88
2018-05-25T12:05:54.164Z,36.77
2018-05-25T12:06:54.185Z,36.91
2018-05-25T12:07:54.226Z,36.86
2018-05-25T12:08:54.234Z,36.81
2018-05-25T12:09:54.269Z,36.84
2018-05-25T12:10:54.303Z,36.88
2018-05-25T12:11:54.080Z,36.84
2018-05-25T12:12:54.115Z,36.89
2018-05-25T12:13:54.116Z,36.95
2018-05-25T12:14:54.436Z,36.93
2018-05-25T12:15:54.470Z,36.95
2018-05-25T12:16:54.509Z,36.99
2018-05-25T12:17:54.532Z,36.98
2018-05-25T12:18:54.562Z,36.98
2018-05-25T12:19:54.611Z,37.02
2018-05-25T12:20:54.621Z,36.99
2018-05-25T12:21:54.408Z,37.11
2018-05-25T12:22:54.435Z,37.13
2018-05-25T12:23:54.212Z,37.13
2018-05-25T12:24:54.754Z,37.2
2018-05-25T12:25:54.789Z,37.25
2018-05-25T12:26:54.843Z,37.32
2018-05-25T12:27:54.925Z,37.36
2018-05-25T12:28:54.639Z,37.39
2018-05-25T12:29:54.645Z,37.42
2018-05-25T12:30:54.972Z,37.51
2018-05-25T12:31:54.978Z,37.55
2018-05-25T12:32:55.042Z,37.44
2018-05-25T12:33:54.790Z,37.55
2018-05-25T12:34:55.102Z,37.7
2018-05-25T12:35:55.157Z,37.7
2018-05-25T12:36:55.180Z,37.77
2018-05-25T12:37:55.243Z,37.87
2018-05-25T12:38:55.232Z,37.92
2018-05-25T12:39:55.284Z,37.96
2018-05-25T12:40:55.333Z,38.08
2018-05-25T12:41:55.057Z,38.04
2018-05-25T12:42:55.090Z,38.15
2018-05-25T12:43:55.117Z,38.15
2018-05-25T12:44:55.191Z,38.19
2018-05-25T12:45:55.196Z,38.21
2018-05-25T12:46:55.522Z,38.24
2018-05-25T12:47:55.300Z,38.26
2018-05-25T12:48:55.567Z,38.31
2018-05-25T12:49:55.345Z,38.28
2018-05-25T12:50:55.628Z,38.28
2018-05-25T12:51:55.683Z,38.31
2018-05-25T12:52:55.426Z,38.3
2018-05-25T12:53:55.473Z,38.36
2018-05-25T12:54:55.757Z,38.36
2018-05-25T12:55:55.797Z,38.31
2018-05-25T12:56:55.832Z,38.34
2018-05-25T12:57:55.941Z,38.34
2018-05-25T12:58:55.931Z,38.36